createdAt,value
2023-04-19T00:01:11.257Z,23.50
2023-04-19T00:03:12.808Z,19.80
2023-04-19T00:05:14.646Z,19.42
2023-04-19T00:07:17.211Z,23.23
2023-04-19T00:09:18.689Z,22.77
2023-04-19T00:11:20.236Z,23.70
2023-04-19T00:13:22.054Z,20.73
2023-04-19T00:15:23.497Z,20.83
2023-04-19T00:17:25.039Z,18.52
2023-04-19T00:19:26.797Z,17.65
2023-04-19T00:21:28.432Z,19.38
2023-04-19T00:23:29.899Z,19.02
2023-04-19T00:25:32.108Z,19.40
2023-04-19T00:27:34.740Z,20.85
2023-04-19T00:29:36.188Z,18.30
2023-04-19T00:31:39.737Z,19.98
2023-04-19T00:33:41.323Z,21.67
2023-04-19T00:35:42.818Z,19.33
2023-04-19T00:37:44.236Z,17.60
2023-04-19T00:39:45.938Z,17.50
2023-04-19T00:41:47.391Z,19.13
2023-04-19T00:43:48.801Z,19.50
2023-04-19T00:45:50.305Z,19.40
2023-04-19T00:47:52.056Z,18.52
2023-04-19T00:49:53.573Z,20.55
2023-04-19T00:51:55.123Z,22.45
2023-04-19T00:53:56.768Z,18.13
2023-04-19T00:56:00.614Z,18.17
2023-04-19T00:58:02.569Z,20.25
2023-04-19T01:00:06.709Z,16.83
2023-04-19T01:02:09.290Z,20.02
2023-04-19T01:04:10.976Z,24.02
2023-04-19T01:06:12.751Z,21.65
2023-04-19T01:08:14.255Z,16.85
2023-04-19T01:10:15.659Z,20.70
2023-04-19T01:12:17.120Z,19.17
2023-04-19T01:14:18.577Z,19.85
2023-04-19T01:16:20.093Z,20.23
2023-04-19T01:18:24.386Z,19.25
2023-04-19T01:20:25.830Z,18.98
2023-04-19T01:22:28.309Z,19.67
2023-04-19T01:24:30.506Z,20.48
2023-04-19T01:26:31.965Z,20.45
2023-04-19T01:28:33.556Z,17.50
2023-04-19T01:30:36.478Z,21.70
2023-04-19T01:32:37.930Z,21.40
2023-04-19T01:34:39.696Z,23.35
2023-04-19T01:36:41.083Z,25.17
2023-04-19T01:38:42.476Z,15.32
2023-04-19T01:40:44.057Z,15.98
2023-04-19T01:42:45.569Z,23.95
2023-04-19T01:44:47.014Z,30.70
2023-04-19T01:46:48.502Z,30.10
2023-04-19T01:48:50.038Z,30.98
2023-04-19T01:50:51.508Z,32.00
2023-04-19T01:52:53.000Z,30.63
2023-04-19T01:54:54.372Z,29.40
2023-04-19T01:56:56.052Z,30.27
2023-04-19T01:58:57.455Z,34.90
2023-04-19T02:00:58.893Z,31.63
2023-04-19T02:03:00.522Z,36.80
2023-04-19T02:05:02.084Z,35.40
2023-04-19T02:07:03.522Z,34.65
2023-04-19T02:09:05.031Z,35.60
2023-04-19T02:11:09.091Z,43.05
2023-04-19T02:13:10.705Z,43.22
2023-04-19T02:15:12.269Z,43.53
2023-04-19T02:17:13.792Z,41.20
2023-04-19T02:19:15.335Z,35.97
2023-04-19T02:21:16.820Z,46.85
2023-04-19T02:23:18.224Z,42.30
2023-04-19T02:25:19.769Z,43.25
2023-04-19T02:27:21.166Z,40.50
2023-04-19T02:29:22.585Z,39.40
2023-04-19T02:31:24.078Z,41.28
2023-04-19T02:33:26.145Z,41.47
2023-04-19T02:35:27.560Z,39.42
2023-04-19T02:37:28.950Z,45.30
2023-04-19T02:39:30.456Z,49.30
2023-04-19T02:41:31.877Z,39.20
2023-04-19T02:43:33.321Z,41.33
2023-04-19T02:45:35.110Z,42.30
2023-04-19T02:47:36.803Z,43.22
2023-04-19T02:49:41.456Z,43.50
2023-04-19T02:51:42.934Z,48.42
2023-04-19T02:53:44.350Z,48.25
2023-04-19T02:55:45.776Z,44.92
2023-04-19T02:57:47.163Z,50.30
2023-04-19T02:59:48.575Z,51.47
2023-04-19T03:01:50.092Z,53.05
2023-04-19T03:03:51.740Z,52.70
2023-04-19T03:05:53.234Z,48.47
2023-04-19T03:07:54.740Z,55.40
2023-04-19T03:09:56.157Z,47.67
2023-04-19T03:11:57.633Z,49.67
2023-04-19T03:13:59.065Z,45.40
2023-04-19T03:16:00.564Z,33.88
2023-04-19T03:18:02.418Z,42.65
2023-04-19T03:20:10.086Z,39.95
2023-04-19T03:22:11.600Z,31.95
2023-04-19T03:24:13.227Z,36.65
2023-04-19T03:26:14.930Z,34.25
2023-04-19T03:28:16.339Z,31.10
2023-04-19T03:30:18.277Z,39.60
2023-04-19T03:32:19.724Z,37.03
2023-04-19T03:34:21.184Z,61.88
2023-04-19T03:36:22.569Z,60.72
2023-04-19T03:38:23.982Z,50.88
2023-04-19T03:40:25.481Z,39.30
2023-04-19T03:42:28.868Z,33.55
2023-04-19T03:44:34.134Z,33.33
2023-04-19T03:46:35.964Z,32.20
2023-04-19T03:48:37.406Z,38.80
2023-04-19T03:50:38.807Z,36.63
2023-04-19T03:52:40.277Z,49.13
2023-04-19T03:54:41.674Z,43.70
2023-04-19T03:56:43.231Z,46.55
2023-04-19T03:58:44.603Z,50.03
2023-04-19T04:00:46.065Z,40.28
2023-04-19T04:02:47.694Z,37.83
2023-04-19T04:04:55.744Z,23.35
2023-04-19T04:06:57.208Z,65.47
2023-04-19T04:08:58.624Z,39.22
2023-04-19T04:11:00.048Z,39.08
2023-04-19T04:13:01.515Z,27.58
2023-04-19T04:15:03.069Z,14.23
2023-04-19T04:17:04.503Z,12.95
2023-04-19T04:19:06.150Z,17.17
2023-04-19T04:21:07.935Z,10.95
2023-04-19T04:23:10.972Z,11.23
2023-04-19T04:25:12.656Z,12.45
2023-04-19T04:27:14.225Z,9.93
2023-04-19T04:29:16.571Z,17.67
2023-04-19T04:31:18.880Z,10.35
2023-04-19T04:33:20.451Z,8.88
2023-04-19T04:35:21.814Z,4.80
2023-04-19T04:37:24.421Z,3.67
2023-04-19T04:39:25.839Z,7.65
2023-04-19T04:41:28.024Z,8.77
2023-04-19T04:43:29.967Z,9.90
2023-04-19T04:45:32.261Z,7.32
2023-04-19T04:47:34.265Z,7.70
2023-04-19T04:49:36.394Z,9.40
2023-04-19T04:51:37.913Z,10.68
2023-04-19T04:53:39.379Z,7.00
2023-04-19T04:55:41.008Z,9.02
2023-04-19T04:57:42.427Z,7.53
2023-04-19T04:59:43.900Z,9.52
2023-04-19T05:01:45.401Z,17.10
2023-04-19T05:03:46.857Z,19.90
2023-04-19T05:05:48.338Z,9.95
2023-04-19T05:07:49.760Z,12.43
2023-04-19T05:09:51.136Z,9.10
2023-04-19T05:11:52.558Z,9.82
2023-04-19T05:13:54.154Z,9.13
2023-04-19T05:15:55.623Z,10.30
2023-04-19T05:17:57.061Z,10.18
2023-04-19T05:19:58.717Z,10.60
2023-04-19T05:22:00.274Z,6.18
2023-04-19T05:24:01.720Z,7.15
2023-04-19T05:26:03.159Z,8.25
2023-04-19T05:28:04.708Z,12.48
2023-04-19T05:30:06.648Z,7.45
2023-04-19T05:32:08.273Z,9.80
2023-04-19T05:34:09.921Z,13.57
2023-04-19T05:36:11.552Z,11.20
2023-04-19T05:38:12.975Z,26.75
2023-04-19T05:40:14.485Z,35.33
2023-04-19T05:42:15.928Z,36.95
2023-04-19T05:44:17.650Z,15.18
2023-04-19T05:46:19.344Z,23.30
2023-04-19T05:48:20.836Z,29.77
2023-04-19T05:50:22.336Z,24.15
2023-04-19T05:52:23.758Z,28.55
2023-04-19T05:54:25.283Z,21.60
2023-04-19T05:56:26.830Z,21.90
2023-04-19T05:58:28.673Z,19.58
2023-04-19T06:00:30.475Z,15.57
2023-04-19T06:02:31.916Z,10.48
2023-04-19T06:04:33.594Z,8.05
2023-04-19T06:06:35.361Z,12.60
2023-04-19T06:08:36.843Z,16.80
2023-04-19T06:10:52.645Z,17.13
2023-04-19T06:12:55.859Z,13.60
2023-04-19T06:14:57.292Z,11.80
2023-04-19T06:16:58.759Z,15.38
2023-04-19T06:19:00.874Z,9.38
2023-04-19T06:21:02.325Z,24.63
2023-04-19T06:23:03.910Z,15.98
2023-04-19T06:25:05.595Z,15.38
2023-04-19T06:27:06.981Z,12.88
2023-04-19T06:29:08.555Z,9.45
2023-04-19T06:31:10.017Z,17.10
2023-04-19T06:33:11.479Z,17.02
2023-04-19T06:35:12.961Z,15.07
2023-04-19T06:37:14.791Z,14.98
2023-04-19T06:39:16.309Z,13.30
2023-04-19T06:41:18.071Z,11.93
2023-04-19T06:43:19.620Z,14.43
2023-04-19T06:45:21.461Z,12.50
2023-04-19T06:47:23.152Z,7.25
2023-04-19T06:49:24.667Z,10.13
2023-04-19T06:51:26.201Z,10.45
2023-04-19T06:53:27.699Z,12.15
2023-04-19T06:55:29.093Z,8.10
2023-04-19T06:57:30.550Z,18.02
2023-04-19T06:59:32.429Z,20.73
2023-04-19T07:01:43.472Z,7.18
2023-04-19T07:03:45.921Z,101.63
2023-04-19T07:05:47.832Z,56.25
2023-04-19T07:07:49.286Z,20.55
2023-04-19T07:09:50.817Z,22.58
2023-04-19T07:11:52.329Z,18.25
2023-04-19T07:13:53.749Z,8.82
2023-04-19T07:15:55.420Z,8.13
2023-04-19T07:17:57.006Z,7.97
2023-04-19T07:19:58.458Z,11.98
2023-04-19T07:21:59.948Z,9.88
2023-04-19T07:24:01.470Z,9.70
2023-04-19T07:26:02.918Z,13.98
2023-04-19T07:28:04.368Z,10.38
2023-04-19T07:30:06.600Z,11.75
2023-04-19T07:32:08.119Z,9.52
2023-04-19T07:34:10.019Z,6.72
2023-04-19T07:36:11.609Z,5.47
2023-04-19T07:38:13.042Z,7.72
2023-04-19T07:40:14.603Z,11.05
2023-04-19T07:42:16.574Z,12.52
2023-04-19T07:44:18.388Z,11.38
2023-04-19T07:46:20.150Z,11.65
2023-04-19T07:48:21.756Z,7.00
2023-04-19T07:50:24.708Z,9.55
2023-04-19T07:52:26.556Z,4.65
2023-04-19T07:54:28.096Z,9.35
2023-04-19T07:56:29.614Z,9.13
2023-04-19T07:58:31.078Z,8.40
2023-04-19T08:00:34.912Z,17.85
2023-04-19T08:02:36.551Z,11.80
2023-04-19T08:04:38.559Z,9.43
2023-04-19T08:06:40.332Z,13.65
2023-04-19T08:08:41.729Z,10.05
2023-04-19T08:10:43.567Z,9.90
2023-04-19T08:12:57.437Z,8.10
2023-04-19T08:15:19.709Z,7.25
2023-04-19T08:17:34.831Z,8.90
2023-04-19T08:19:41.741Z,5.93
2023-04-19T08:21:43.247Z,11.48
2023-04-19T08:23:48.266Z,35.60
2023-04-19T08:25:51.799Z,30.40
2023-04-19T08:27:53.276Z,37.05
2023-04-19T08:29:54.726Z,29.13
2023-04-19T08:31:56.247Z,44.10
2023-04-19T08:34:00.257Z,42.78
2023-04-19T08:36:01.849Z,44.38
2023-04-19T08:38:04.913Z,44.88
2023-04-19T08:40:06.811Z,50.25
2023-04-19T08:42:18.427Z,39.85
2023-04-19T08:44:36.487Z,42.35
2023-04-19T08:46:39.002Z,44.00
2023-04-19T08:48:40.983Z,42.03
2023-04-19T08:50:55.891Z,39.55
2023-04-19T08:55:08.216Z,39.88
2023-04-19T08:57:09.718Z,46.38
2023-04-19T08:59:17.961Z,53.50
2023-04-19T09:01:34.890Z,48.60
2023-04-19T09:03:55.995Z,62.72
2023-04-19T09:06:02.701Z,49.70
2023-04-19T09:08:24.992Z,46.63
2023-04-19T09:10:27.196Z,31.67
2023-04-19T09:12:28.713Z,43.03
2023-04-19T09:14:30.188Z,51.40
2023-04-19T09:16:31.632Z,27.35
2023-04-19T09:18:35.965Z,25.42
2023-04-19T09:20:42.766Z,51.45
2023-04-19T09:23:02.581Z,16.98
2023-04-19T09:27:32.428Z,39.53
2023-04-19T09:29:33.973Z,52.40
2023-04-19T09:31:50.530Z,45.72
2023-04-19T09:33:54.474Z,35.17
2023-04-19T09:35:56.106Z,47.28
2023-04-19T09:38:05.855Z,39.42
2023-04-19T09:40:23.967Z,36.33
2023-04-19T09:47:03.075Z,38.80
2023-04-19T09:49:20.320Z,29.10
2023-04-19T09:51:39.972Z,36.22
2023-04-19T09:53:42.506Z,16.70
2023-04-19T09:55:53.441Z,29.90
2023-04-19T09:58:01.502Z,46.08
2023-04-19T10:00:07.145Z,18.85
2023-04-19T10:02:10.890Z,49.58
2023-04-19T10:04:24.077Z,22.65
2023-04-19T10:06:45.897Z,21.50
2023-04-19T10:08:54.215Z,22.50
2023-04-19T10:10:56.287Z,25.70
2023-04-19T10:13:18.305Z,46.90
2023-04-19T10:15:21.967Z,25.95
2023-04-19T10:17:23.958Z,39.83
2023-04-19T10:19:25.687Z,20.30
2023-04-19T10:21:28.048Z,19.52
2023-04-19T10:23:30.278Z,45.70
2023-04-19T10:25:31.715Z,38.80
2023-04-19T10:27:34.730Z,23.63
2023-04-19T10:29:55.392Z,39.03
2023-04-19T10:31:56.832Z,36.92
2023-04-19T10:33:58.851Z,36.70
2023-04-19T10:36:00.880Z,41.35
2023-04-19T10:38:02.246Z,27.65
2023-04-19T10:40:05.367Z,21.40
2023-04-19T10:42:07.184Z,38.75
2023-04-19T10:44:09.638Z,46.00
2023-04-19T10:46:11.483Z,26.33
2023-04-19T10:48:33.460Z,31.35
2023-04-19T10:50:53.955Z,29.08
2023-04-19T10:52:55.750Z,49.72
2023-04-19T10:54:57.248Z,23.98
2023-04-19T10:57:00.690Z,36.85
2023-04-19T10:59:02.411Z,45.20
2023-04-19T11:01:22.761Z,26.65
2023-04-19T11:03:43.069Z,36.75
2023-04-19T11:06:03.637Z,39.70
2023-04-19T11:08:05.360Z,53.05
2023-04-19T11:10:07.310Z,51.92
2023-04-19T11:12:11.065Z,60.80
2023-04-19T11:14:13.586Z,35.28
2023-04-19T11:16:15.424Z,67.07
2023-04-19T11:18:20.471Z,26.60
2023-04-19T11:20:23.454Z,35.20
2023-04-19T11:22:41.534Z,34.65
2023-04-19T11:24:47.687Z,47.33
2023-04-19T11:26:49.151Z,39.13
2023-04-19T11:28:50.901Z,59.63
2023-04-19T11:30:52.505Z,45.28
2023-04-19T11:32:55.007Z,24.73
2023-04-19T11:34:56.397Z,24.00
2023-04-19T11:36:58.588Z,34.08
2023-04-19T11:39:00.076Z,25.38
2023-04-19T11:41:02.026Z,31.67
2023-04-19T11:43:05.200Z,33.13
2023-04-19T11:45:13.138Z,59.97
2023-04-19T11:47:20.646Z,33.33
2023-04-19T11:49:31.758Z,33.78
2023-04-19T11:51:33.186Z,38.85
2023-04-19T11:53:34.640Z,44.35
2023-04-19T11:55:36.486Z,30.33
2023-04-19T11:57:41.722Z,37.47
2023-04-19T12:00:02.116Z,38.25
2023-04-19T12:02:07.423Z,33.03
2023-04-19T12:04:09.619Z,36.85
2023-04-19T12:06:13.350Z,38.25
2023-04-19T12:08:14.805Z,46.85
2023-04-19T12:10:16.216Z,38.38
2023-04-19T12:12:31.709Z,30.80
2023-04-19T12:14:33.344Z,51.55
2023-04-19T12:16:34.856Z,56.47
2023-04-19T12:18:49.960Z,49.53
2023-04-19T12:20:52.246Z,41.50
2023-04-19T12:22:53.665Z,29.83
2023-04-19T12:24:56.149Z,38.00
2023-04-19T12:26:58.980Z,35.50
2023-04-19T12:29:02.792Z,38.72
2023-04-19T12:31:04.304Z,32.50
2023-04-19T12:33:09.230Z,33.78
2023-04-19T12:35:10.965Z,46.20
2023-04-19T12:37:12.514Z,41.15
2023-04-19T12:39:13.997Z,36.17
2023-04-19T12:41:15.579Z,43.95
2023-04-19T12:43:17.017Z,34.88
2023-04-19T12:45:19.224Z,35.38
2023-04-19T12:47:20.748Z,34.70
2023-04-19T12:49:22.183Z,48.40
2023-04-19T12:51:23.570Z,34.90
2023-04-19T12:53:25.299Z,67.97
2023-04-19T12:55:27.357Z,89.60
2023-04-19T12:57:28.817Z,52.50
2023-04-19T12:59:30.846Z,33.05
2023-04-19T13:01:32.934Z,32.55
2023-04-19T13:03:36.689Z,20.83
2023-04-19T13:05:38.570Z,27.38
2023-04-19T13:07:40.449Z,32.33
2023-04-19T13:09:41.908Z,40.03
2023-04-19T13:11:43.290Z,23.88
2023-04-19T13:13:44.761Z,27.58
2023-04-19T13:15:46.243Z,29.25
2023-04-19T13:17:48.051Z,32.88
2023-04-19T13:19:49.562Z,48.95
2023-04-19T13:21:51.154Z,38.30
2023-04-19T13:23:53.258Z,33.80
2023-04-19T13:25:54.809Z,49.97
2023-04-19T13:27:56.607Z,35.65
2023-04-19T13:29:58.021Z,41.70
2023-04-19T13:31:59.503Z,33.78
2023-04-19T13:34:01.448Z,27.88
2023-04-19T13:36:03.166Z,43.17
2023-04-19T13:38:04.757Z,22.83
2023-04-19T13:40:18.155Z,25.27
2023-04-19T13:42:20.453Z,32.80
2023-04-19T13:44:21.900Z,33.83
2023-04-19T13:46:23.318Z,31.60
2023-04-19T13:48:27.463Z,21.58
2023-04-19T13:50:29.305Z,35.97
2023-04-19T13:52:30.706Z,33.70
2023-04-19T13:54:32.154Z,25.48
2023-04-19T13:56:33.544Z,23.90
2023-04-19T13:58:36.108Z,24.63
2023-04-19T14:00:38.051Z,24.67
2023-04-19T14:02:39.811Z,25.63
2023-04-19T14:04:41.409Z,26.30
2023-04-19T14:06:43.029Z,24.70
2023-04-19T14:08:44.615Z,31.80
2023-04-19T14:10:46.435Z,30.42
2023-04-19T14:12:49.101Z,18.25
2023-04-19T14:14:50.533Z,18.88
2023-04-19T14:16:51.968Z,21.67
2023-04-19T14:18:53.452Z,22.23
2023-04-19T14:20:55.597Z,31.58
2023-04-19T14:22:59.048Z,28.38
2023-04-19T14:25:00.670Z,25.40
2023-04-19T14:29:06.608Z,19.95
2023-04-19T14:31:10.637Z,24.08
2023-04-19T14:33:12.080Z,17.33
2023-04-19T14:35:13.519Z,20.88
2023-04-19T14:37:15.011Z,23.60
2023-04-19T14:39:16.730Z,35.83
2023-04-19T14:41:18.690Z,16.33
2023-04-19T14:43:20.129Z,21.45
2023-04-19T14:45:21.641Z,20.20
2023-04-19T14:47:23.072Z,22.40
2023-04-19T14:49:24.512Z,20.65
2023-04-19T14:51:26.221Z,22.38
2023-04-19T14:53:27.615Z,20.27
2023-04-19T14:55:29.100Z,23.13
2023-04-19T14:57:30.499Z,22.27
2023-04-19T14:59:31.958Z,23.65
2023-04-19T15:01:34.137Z,20.83
2023-04-19T15:03:35.831Z,24.48
2023-04-19T15:05:37.418Z,23.45
2023-04-19T15:07:38.827Z,21.05
2023-04-19T15:09:41.159Z,24.23
2023-04-19T15:11:43.153Z,21.55
2023-04-19T15:13:44.648Z,22.27
2023-04-19T15:15:46.139Z,21.13
2023-04-19T15:17:47.749Z,20.90
2023-04-19T15:19:49.219Z,21.65
2023-04-19T15:21:50.852Z,23.67
2023-04-19T15:23:52.360Z,24.65
2023-04-19T15:25:53.823Z,25.63
2023-04-19T15:27:55.722Z,17.10
2023-04-19T15:29:57.129Z,20.63
2023-04-19T15:31:58.893Z,20.05
2023-04-19T15:34:01.466Z,24.58
2023-04-19T15:36:02.965Z,20.10
2023-04-19T15:38:04.415Z,20.58
2023-04-19T15:40:09.708Z,20.60
2023-04-19T15:42:11.110Z,19.27
2023-04-19T15:44:12.934Z,17.40
2023-04-19T15:46:14.726Z,20.42
2023-04-19T15:48:16.154Z,28.30
2023-04-19T15:50:17.534Z,20.73
2023-04-19T15:52:19.373Z,21.98
2023-04-19T15:54:23.050Z,22.65
2023-04-19T15:56:24.602Z,18.83
2023-04-19T15:58:26.774Z,20.95
2023-04-19T16:00:28.351Z,26.33
2023-04-19T16:02:29.974Z,20.80
2023-04-19T16:04:32.209Z,27.48
2023-04-19T16:06:33.740Z,23.80
2023-04-19T16:08:35.276Z,29.55
2023-04-19T16:10:36.931Z,84.93
2023-04-19T16:12:38.351Z,97.85
2023-04-19T16:14:40.080Z,85.13
2023-04-19T16:16:42.271Z,36.63
2023-04-19T16:18:43.772Z,34.50
2023-04-19T16:20:45.274Z,33.05
2023-04-19T16:22:47.049Z,32.63
2023-04-19T16:24:48.672Z,29.70
2023-04-19T16:26:50.139Z,26.60
2023-04-19T16:28:51.613Z,35.58
2023-04-19T16:30:53.147Z,29.95
2023-04-19T16:32:55.151Z,31.85
2023-04-19T16:34:56.896Z,33.78
2023-04-19T16:36:58.350Z,62.17
2023-04-19T16:39:00.369Z,29.48
2023-04-19T16:41:04.563Z,31.30
2023-04-19T16:43:06.545Z,51.78
2023-04-19T16:45:08.878Z,35.75
2023-04-19T16:47:11.105Z,40.00
2023-04-19T16:49:12.593Z,41.70
2023-04-19T16:51:14.018Z,33.88
2023-04-19T16:53:15.660Z,31.10
2023-04-19T16:55:17.247Z,27.83
2023-04-19T16:57:18.884Z,26.77
2023-04-19T16:59:20.739Z,34.63
2023-04-19T17:01:22.547Z,30.85
2023-04-19T17:03:24.263Z,28.85
2023-04-19T17:05:25.886Z,42.83
2023-04-19T17:07:27.358Z,31.02
2023-04-19T17:09:29.085Z,35.83
2023-04-19T17:11:32.523Z,43.53
2023-04-19T17:13:34.019Z,36.08
2023-04-19T17:15:37.150Z,33.35
2023-04-19T17:17:38.798Z,31.05
2023-04-19T17:19:40.237Z,31.00
2023-04-19T17:21:41.685Z,35.30
2023-04-19T17:23:44.814Z,44.20
2023-04-19T17:25:46.221Z,44.53
2023-04-19T17:27:47.601Z,41.92
2023-04-19T17:29:49.002Z,39.13
2023-04-19T17:31:50.466Z,44.28
2023-04-19T17:33:51.923Z,52.67
2023-04-19T17:35:53.310Z,42.72
2023-04-19T17:37:54.827Z,44.75
2023-04-19T17:39:56.244Z,37.97
2023-04-19T17:41:57.922Z,40.42
2023-04-19T17:43:59.366Z,36.17
2023-04-19T17:46:00.907Z,42.72
2023-04-19T17:48:02.464Z,38.60
2023-04-19T17:50:08.091Z,38.28
2023-04-19T17:52:09.542Z,33.28
2023-04-19T17:54:10.962Z,32.58
2023-04-19T17:56:12.418Z,31.70
2023-04-19T17:58:13.938Z,35.13
2023-04-19T18:00:16.381Z,38.58
2023-04-19T18:02:17.894Z,38.17
2023-04-19T18:04:20.056Z,35.15
2023-04-19T18:06:21.832Z,43.33
2023-04-19T18:08:23.251Z,45.55
2023-04-19T18:10:24.688Z,58.00
2023-04-19T18:12:26.481Z,52.42
2023-04-19T18:14:27.938Z,47.20
2023-04-19T18:16:29.407Z,46.88
2023-04-19T18:18:30.963Z,42.45
2023-04-19T18:20:32.407Z,45.83
2023-04-19T18:22:33.841Z,41.78
2023-04-19T18:24:35.305Z,38.30
2023-04-19T18:26:44.428Z,38.00
2023-04-19T18:28:45.827Z,42.53
2023-04-19T18:30:47.395Z,37.22
2023-04-19T18:32:48.861Z,43.17
2023-04-19T18:34:50.300Z,42.38
2023-04-19T18:36:54.838Z,40.08
2023-04-19T18:38:56.333Z,36.83
2023-04-19T18:40:58.285Z,38.90
2023-04-19T18:42:59.785Z,40.45
2023-04-19T18:45:01.905Z,40.47
2023-04-19T18:47:03.317Z,41.95
2023-04-19T18:49:04.750Z,41.20
2023-04-19T18:51:09.662Z,44.65
2023-04-19T18:53:11.360Z,40.17
2023-04-19T18:55:13.801Z,41.17
2023-04-19T18:59:19.877Z,47.50
2023-04-19T19:01:21.417Z,38.42
2023-04-19T19:03:43.694Z,47.95
2023-04-19T19:05:45.138Z,46.10
2023-04-19T19:07:47.096Z,45.22
2023-04-19T19:09:55.842Z,41.05
2023-04-19T19:11:57.829Z,41.00
2023-04-19T19:13:59.222Z,43.58
2023-04-19T19:16:00.743Z,47.05
2023-04-19T19:18:03.129Z,40.42
2023-04-19T19:20:06.785Z,44.38
2023-04-19T19:22:22.430Z,39.72
2023-04-19T19:24:25.490Z,58.08
2023-04-19T19:26:26.929Z,59.88
2023-04-19T19:28:28.432Z,56.72
2023-04-19T19:30:33.583Z,73.00
2023-04-19T19:32:35.400Z,67.35
2023-04-19T19:34:51.147Z,47.25
2023-04-19T19:36:55.793Z,52.92
2023-04-19T19:38:57.189Z,46.50
2023-04-19T19:41:39.890Z,45.30
2023-04-19T19:43:19.980Z,47.80
2023-04-19T19:45:21.546Z,46.80
2023-04-19T19:47:23.955Z,56.20
2023-04-19T19:49:26.284Z,47.65
2023-04-19T19:51:53.021Z,51.00
2023-04-19T19:53:49.808Z,53.60
2023-04-19T19:55:51.469Z,50.58
2023-04-19T20:00:12.989Z,50.38
2023-04-19T20:02:19.396Z,55.00
2023-04-19T20:04:22.713Z,67.35
2023-04-19T20:08:29.218Z,53.60
2023-04-19T20:10:30.863Z,58.05
2023-04-19T20:12:32.289Z,60.70
2023-04-19T20:14:36.517Z,57.30
2023-04-19T20:16:38.090Z,58.25
2023-04-19T20:18:39.741Z,54.17
2023-04-19T20:20:41.190Z,64.80
2023-04-19T20:22:42.669Z,70.60
2023-04-19T20:24:45.728Z,70.85
2023-04-19T20:26:48.214Z,72.38
2023-04-19T20:28:49.774Z,58.78
2023-04-19T20:30:51.212Z,67.28
2023-04-19T20:32:52.828Z,67.05
2023-04-19T20:34:54.305Z,70.15
2023-04-19T20:36:55.731Z,61.58
2023-04-19T20:38:58.825Z,61.25
2023-04-19T20:41:00.262Z,63.00
2023-04-19T20:43:01.718Z,62.28
2023-04-19T20:45:03.220Z,64.68
2023-04-19T20:47:04.696Z,61.50
2023-04-19T20:49:06.188Z,62.42
2023-04-19T20:51:07.652Z,61.38
2023-04-19T20:53:09.018Z,61.03
2023-04-19T20:55:10.508Z,59.80
2023-04-19T20:57:12.006Z,61.58
2023-04-19T20:59:13.453Z,59.67
2023-04-19T21:01:17.541Z,60.97
2023-04-19T21:03:19.204Z,66.72
2023-04-19T21:05:20.826Z,61.28
2023-04-19T21:07:22.249Z,62.83
2023-04-19T21:09:23.707Z,60.70
2023-04-19T21:11:25.284Z,64.75
2023-04-19T21:13:26.686Z,64.03
2023-04-19T21:15:28.425Z,65.88
2023-04-19T21:17:29.906Z,60.13
2023-04-19T21:19:31.365Z,64.63
2023-04-19T21:21:32.790Z,61.92
2023-04-19T21:23:34.469Z,65.95
2023-04-19T21:25:36.004Z,71.75
2023-04-19T21:27:37.416Z,70.57
2023-04-19T21:29:38.817Z,69.32
2023-04-19T21:31:40.650Z,69.95
2023-04-19T21:33:42.142Z,65.53
2023-04-19T21:35:43.723Z,65.20
2023-04-19T21:37:45.534Z,85.38
2023-04-19T21:39:48.490Z,66.28
2023-04-19T21:41:49.974Z,80.90
2023-04-19T21:43:51.389Z,72.18
2023-04-19T21:45:52.786Z,105.43
2023-04-19T21:47:54.205Z,128.95
2023-04-19T21:49:55.767Z,73.18
2023-04-19T21:51:57.239Z,73.43
2023-04-19T21:54:01.106Z,73.18
2023-04-19T21:56:03.037Z,77.22
2023-04-19T21:58:04.438Z,70.95
2023-04-19T22:00:06.895Z,122.57
2023-04-19T22:02:08.431Z,155.77
2023-04-19T22:04:12.133Z,205.27
2023-04-19T22:06:17.040Z,80.60
2023-04-19T22:08:18.514Z,78.85
2023-04-19T22:10:19.927Z,88.50
2023-04-19T22:12:21.368Z,85.65
2023-04-19T22:14:25.606Z,85.53
2023-04-19T22:16:28.236Z,92.35
2023-04-19T22:18:29.726Z,95.75
2023-04-19T22:20:32.271Z,95.18
2023-04-19T22:22:33.710Z,93.50
2023-04-19T22:24:41.238Z,92.30
2023-04-19T22:26:50.076Z,92.55
2023-04-19T22:28:51.534Z,87.72
2023-04-19T22:30:52.995Z,86.60
2023-04-19T22:32:54.506Z,90.43
2023-04-19T22:34:55.905Z,90.65
2023-04-19T22:36:57.322Z,119.07
2023-04-19T22:38:58.785Z,129.98
2023-04-19T22:41:00.971Z,104.03
2023-04-19T22:43:02.372Z,94.50
2023-04-19T22:45:04.057Z,102.15
2023-04-19T22:47:05.494Z,89.97
2023-04-19T22:49:08.932Z,97.40
2023-04-19T22:51:10.539Z,101.50
2023-04-19T22:53:12.878Z,96.97
2023-04-19T22:55:14.274Z,103.25
2023-04-19T22:57:16.513Z,88.80
2023-04-19T22:59:18.158Z,94.32
2023-04-19T23:01:19.812Z,97.70
2023-04-19T23:03:21.611Z,113.25
2023-04-19T23:05:23.244Z,111.13
2023-04-19T23:07:24.645Z,101.90
2023-04-19T23:09:26.057Z,95.88
2023-04-19T23:11:29.914Z,102.93
2023-04-19T23:13:31.353Z,95.53
2023-04-19T23:15:33.263Z,94.38
2023-04-19T23:17:34.800Z,95.47
2023-04-19T23:19:37.587Z,85.75
2023-04-19T23:21:39.010Z,89.20
2023-04-19T23:23:40.538Z,87.90
2023-04-19T23:25:42.155Z,113.95
2023-04-19T23:27:43.620Z,113.20
2023-04-19T23:29:45.097Z,152.35
2023-04-19T23:31:46.796Z,274.90
2023-04-19T23:33:48.515Z,132.48
2023-04-19T23:35:49.924Z,217.25
2023-04-19T23:37:51.455Z,183.73
2023-04-19T23:39:52.896Z,121.90
2023-04-19T23:41:54.306Z,101.30
2023-04-19T23:43:55.805Z,108.43
2023-04-19T23:45:57.209Z,99.15
2023-04-19T23:47:58.650Z,91.90
2023-04-19T23:50:00.442Z,91.60
2023-04-19T23:52:04.970Z,87.07
2023-04-19T23:54:06.681Z,90.82
2023-04-19T23:56:08.113Z,98.30
2023-04-19T23:58:09.490Z,108.32
